createdAt,value
2023-04-28T00:00:04.834Z,527.00
2023-04-28T00:01:04.851Z,525.00
2023-04-28T00:02:04.820Z,526.00
2023-04-28T00:03:04.920Z,529.00
2023-04-28T00:04:04.998Z,530.00
2023-04-28T00:05:05.040Z,531.00
2023-04-28T00:06:04.794Z,533.00
2023-04-28T00:07:04.791Z,531.00
2023-04-28T00:08:04.787Z,529.00
2023-04-28T00:09:04.762Z,529.00
2023-04-28T00:10:04.756Z,529.00
2023-04-28T00:11:04.767Z,528.00
2023-04-28T00:12:04.748Z,529.00
2023-04-28T00:13:04.776Z,531.00
2023-04-28T00:14:04.736Z,533.00
2023-04-28T00:15:04.947Z,534.00
2023-04-28T00:16:04.755Z,533.00
2023-04-28T00:17:04.845Z,533.00
2023-04-28T00:18:04.762Z,532.00
2023-04-28T00:19:04.705Z,533.00
2023-04-28T00:20:04.811Z,533.00
2023-04-28T00:21:04.725Z,535.00
2023-04-28T00:22:04.735Z,536.00
2023-04-28T00:23:04.684Z,535.00
2023-04-28T00:24:04.670Z,532.00
2023-04-28T00:25:04.722Z,528.00
2023-04-28T00:26:04.688Z,525.00
2023-04-28T00:27:04.688Z,527.00
2023-04-28T00:28:04.664Z,528.00
2023-04-28T00:29:04.677Z,530.00
2023-04-28T00:30:04.949Z,529.00
2023-04-28T00:31:04.642Z,530.00
2023-04-28T00:32:04.816Z,531.00
2023-04-28T00:33:04.675Z,531.00
2023-04-28T00:34:04.635Z,533.00
2023-04-28T00:35:04.980Z,531.00
2023-04-28T00:36:04.623Z,530.00
2023-04-28T00:37:04.675Z,532.00
2023-04-28T00:38:04.633Z,533.00
2023-04-28T00:39:04.668Z,533.00
2023-04-28T00:40:04.694Z,533.00
2023-04-28T00:41:04.711Z,532.00
2023-04-28T00:42:04.750Z,532.00
2023-04-28T00:43:04.720Z,528.00
2023-04-28T00:44:04.787Z,529.00
2023-04-28T00:45:04.950Z,528.00
2023-04-28T00:46:04.828Z,528.00
2023-04-28T00:47:04.855Z,526.00
2023-04-28T00:48:04.927Z,525.00
2023-04-28T00:49:04.903Z,524.00
2023-04-28T00:50:04.926Z,525.00
2023-04-28T00:51:05.456Z,526.00
2023-04-28T00:52:04.933Z,526.00
2023-04-28T00:53:05.002Z,526.00
2023-04-28T00:54:04.997Z,527.00
2023-04-28T00:55:05.049Z,526.00
2023-04-28T00:56:05.065Z,525.00
2023-04-28T00:57:05.074Z,524.00
2023-04-28T00:58:05.135Z,520.00
2023-04-28T00:59:05.099Z,520.00
2023-04-28T01:00:05.145Z,519.00
2023-04-28T01:01:05.246Z,521.00
2023-04-28T01:02:05.171Z,523.00
2023-04-28T01:03:05.324Z,523.00
2023-04-28T01:04:05.303Z,524.00
2023-04-28T01:05:05.247Z,525.00
2023-04-28T01:06:05.453Z,526.00
2023-04-28T01:07:05.306Z,524.00
2023-04-28T01:08:05.302Z,525.00
2023-04-28T01:09:05.311Z,525.00
2023-04-28T01:10:05.361Z,525.00
2023-04-28T01:11:05.353Z,524.00
2023-04-28T01:12:05.379Z,526.00
2023-04-28T01:13:05.404Z,528.00
2023-04-28T01:14:05.433Z,527.00
2023-04-28T01:15:05.428Z,526.00
2023-04-28T01:16:05.560Z,525.00
2023-04-28T01:17:05.522Z,523.00
2023-04-28T01:18:05.575Z,523.00
2023-04-28T01:19:05.567Z,523.00
2023-04-28T01:20:05.682Z,521.00
2023-04-28T01:21:05.583Z,521.00
2023-04-28T01:22:05.608Z,521.00
2023-04-28T01:23:05.662Z,523.00
2023-04-28T01:24:05.673Z,523.00
2023-04-28T01:25:05.732Z,525.00
2023-04-28T01:26:05.959Z,526.00
2023-04-28T01:27:05.744Z,526.00
2023-04-28T01:28:05.806Z,528.00
2023-04-28T01:29:05.806Z,526.00
2023-04-28T01:30:05.847Z,527.00
2023-04-28T01:31:05.869Z,525.00
2023-04-28T01:32:05.855Z,526.00
2023-04-28T01:33:05.960Z,528.00
2023-04-28T01:34:05.942Z,528.00
2023-04-28T01:35:05.975Z,525.00
2023-04-28T01:36:05.967Z,525.00
2023-04-28T01:37:05.991Z,524.00
2023-04-28T01:38:06.054Z,525.00
2023-04-28T01:39:06.079Z,523.00
2023-04-28T01:40:06.065Z,522.00
2023-04-28T01:41:06.171Z,522.00
2023-04-28T01:42:06.172Z,521.00
2023-04-28T01:43:06.182Z,522.00
2023-04-28T01:44:06.273Z,522.00
2023-04-28T01:45:06.219Z,522.00
2023-04-28T01:46:06.270Z,521.00
2023-04-28T01:47:06.239Z,521.00
2023-04-28T01:48:06.338Z,521.00
2023-04-28T01:49:06.328Z,521.00
2023-04-28T01:50:06.346Z,523.00
2023-04-28T01:51:06.370Z,523.00
2023-04-28T01:52:06.401Z,525.00
2023-04-28T01:53:06.385Z,526.00
2023-04-28T01:54:06.954Z,523.00
2023-04-28T01:55:06.452Z,521.00
2023-04-28T01:56:06.460Z,519.00
2023-04-28T01:57:06.461Z,522.00
2023-04-28T01:58:06.519Z,524.00
2023-04-28T01:59:06.515Z,524.00
2023-04-28T02:00:06.519Z,524.00
2023-04-28T02:01:06.685Z,527.00
2023-04-28T02:02:06.609Z,526.00
2023-04-28T02:03:06.673Z,526.00
2023-04-28T02:04:06.653Z,525.00
2023-04-28T02:05:06.683Z,524.00
2023-04-28T02:06:06.661Z,527.00
2023-04-28T02:07:06.688Z,526.00
2023-04-28T02:08:06.693Z,527.00
2023-04-28T02:09:06.744Z,528.00
2023-04-28T02:10:06.794Z,526.00
2023-04-28T02:11:06.824Z,527.00
2023-04-28T02:12:06.823Z,526.00
2023-04-28T02:13:06.835Z,526.00
2023-04-28T02:14:06.854Z,526.00
2023-04-28T02:15:06.900Z,523.00
2023-04-28T02:16:06.983Z,524.00
2023-04-28T02:17:06.953Z,522.00
2023-04-28T02:18:06.994Z,521.00
2023-04-28T02:19:07.001Z,522.00
2023-04-28T02:20:07.041Z,520.00
2023-04-28T02:21:07.051Z,521.00
2023-04-28T02:22:07.053Z,523.00
2023-04-28T02:23:07.110Z,521.00
2023-04-28T02:24:07.128Z,519.00
2023-04-28T02:25:07.140Z,517.00
2023-04-28T02:26:07.133Z,518.00
2023-04-28T02:27:07.181Z,517.00
2023-04-28T02:28:07.228Z,516.00
2023-04-28T02:29:07.256Z,519.00
2023-04-28T02:30:07.268Z,520.00
2023-04-28T02:31:07.372Z,519.00
2023-04-28T02:32:07.353Z,519.00
2023-04-28T02:33:07.491Z,521.00
2023-04-28T02:34:07.444Z,524.00
2023-04-28T02:35:07.457Z,524.00
2023-04-28T02:36:07.499Z,523.00
2023-04-28T02:37:07.512Z,521.00
2023-04-28T02:38:07.577Z,519.00
2023-04-28T02:39:07.573Z,518.00
2023-04-28T02:40:07.631Z,517.00
2023-04-28T02:41:07.617Z,519.00
2023-04-28T02:42:07.638Z,521.00
2023-04-28T02:43:08.090Z,521.00
2023-04-28T02:44:07.720Z,521.00
2023-04-28T02:45:07.720Z,522.00
2023-04-28T02:46:07.879Z,521.00
2023-04-28T02:47:07.884Z,520.00
2023-04-28T02:48:07.838Z,521.00
2023-04-28T02:49:07.861Z,522.00
2023-04-28T02:50:07.887Z,521.00
2023-04-28T02:51:07.906Z,523.00
2023-04-28T02:52:07.931Z,525.00
2023-04-28T02:53:07.928Z,526.00
2023-04-28T02:54:07.993Z,525.00
2023-04-28T02:55:08.025Z,528.00
2023-04-28T02:56:08.051Z,529.00
2023-04-28T02:57:08.065Z,528.00
2023-04-28T02:58:08.090Z,526.00
2023-04-28T02:59:08.996Z,528.00
2023-04-28T03:00:08.171Z,527.00
2023-04-28T03:01:08.184Z,528.00
2023-04-28T03:02:08.210Z,525.00
2023-04-28T03:03:08.348Z,526.00
2023-04-28T03:04:08.392Z,528.00
2023-04-28T03:05:08.305Z,529.00
2023-04-28T03:06:08.319Z,530.00
2023-04-28T03:07:08.341Z,529.00
2023-04-28T03:08:08.375Z,528.00
2023-04-28T03:09:08.419Z,527.00
2023-04-28T03:10:08.451Z,528.00
2023-04-28T03:11:09.016Z,531.00
2023-04-28T03:12:08.547Z,530.00
2023-04-28T03:13:08.565Z,530.00
2023-04-28T03:14:08.599Z,530.00
2023-04-28T03:15:08.625Z,530.00
2023-04-28T03:16:08.689Z,530.00
2023-04-28T03:17:08.665Z,529.00
2023-04-28T03:18:08.705Z,530.00
2023-04-28T03:19:08.727Z,528.00
2023-04-28T03:20:08.771Z,525.00
2023-04-28T03:21:08.794Z,525.00
2023-04-28T03:22:08.832Z,526.00
2023-04-28T03:23:08.848Z,526.00
2023-04-28T03:24:08.892Z,524.00
2023-04-28T03:25:08.916Z,524.00
2023-04-28T03:26:08.932Z,524.00
2023-04-28T03:27:08.965Z,524.00
2023-04-28T03:28:09.015Z,524.00
2023-04-28T03:29:09.025Z,524.00
2023-04-28T03:30:09.053Z,523.00
2023-04-28T03:31:09.087Z,523.00
2023-04-28T03:32:09.220Z,521.00
2023-04-28T03:33:09.200Z,520.00
2023-04-28T03:34:09.133Z,521.00
2023-04-28T03:35:09.201Z,523.00
2023-04-28T03:36:09.198Z,523.00
2023-04-28T03:37:09.273Z,525.00
2023-04-28T03:38:09.292Z,526.00
2023-04-28T03:39:09.994Z,526.00
2023-04-28T03:40:09.350Z,524.00
2023-04-28T03:41:09.391Z,524.00
2023-04-28T03:42:09.407Z,524.00
2023-04-28T03:43:09.447Z,526.00
2023-04-28T03:44:09.474Z,524.00
2023-04-28T03:45:09.514Z,522.00
2023-04-28T03:46:09.579Z,523.00
2023-04-28T03:47:09.584Z,521.00
2023-04-28T03:48:09.636Z,521.00
2023-04-28T03:49:09.676Z,522.00
2023-04-28T03:50:09.665Z,521.00
2023-04-28T03:51:09.733Z,522.00
2023-04-28T03:52:09.737Z,521.00
2023-04-28T03:53:09.772Z,520.00
2023-04-28T03:54:09.840Z,520.00
2023-04-28T03:55:09.840Z,521.00
2023-04-28T03:56:10.034Z,520.00
2023-04-28T03:57:09.910Z,520.00
2023-04-28T03:58:09.935Z,519.00
2023-04-28T03:59:09.979Z,520.00
2023-04-28T04:00:10.035Z,521.00
2023-04-28T04:01:10.027Z,522.00
2023-04-28T04:02:10.102Z,522.00
2023-04-28T04:03:10.251Z,522.00
2023-04-28T04:04:10.414Z,520.00
2023-04-28T04:05:10.379Z,522.00
2023-04-28T04:06:10.496Z,523.00
2023-04-28T04:07:10.235Z,524.00
2023-04-28T04:08:10.237Z,524.00
2023-04-28T04:09:10.293Z,525.00
2023-04-28T04:10:10.312Z,526.00
2023-04-28T04:11:10.495Z,528.00
2023-04-28T04:12:10.388Z,530.00
2023-04-28T04:13:10.443Z,529.00
2023-04-28T04:14:10.428Z,527.00
2023-04-28T04:15:10.448Z,526.00
2023-04-28T04:16:10.574Z,525.00
2023-04-28T04:17:10.538Z,524.00
2023-04-28T04:18:10.641Z,525.00
2023-04-28T04:19:10.599Z,525.00
2023-04-28T04:20:10.635Z,526.00
2023-04-28T04:21:11.049Z,525.00
2023-04-28T04:22:10.676Z,524.00
2023-04-28T04:23:10.699Z,525.00
2023-04-28T04:24:10.755Z,526.00
2023-04-28T04:25:10.823Z,529.00
2023-04-28T04:26:10.811Z,528.00
2023-04-28T04:27:10.886Z,529.00
2023-04-28T04:28:10.872Z,529.00
2023-04-28T04:29:10.910Z,526.00
2023-04-28T04:30:10.983Z,525.00
2023-04-28T04:31:10.999Z,524.00
2023-04-28T04:32:10.986Z,523.00
2023-04-28T04:33:11.031Z,524.00
2023-04-28T04:34:11.062Z,525.00
2023-04-28T04:35:11.119Z,524.00
2023-04-28T04:36:11.134Z,526.00
2023-04-28T04:37:11.133Z,528.00
2023-04-28T04:38:11.176Z,529.00
2023-04-28T04:39:11.221Z,530.00
2023-04-28T04:40:11.298Z,532.00
2023-04-28T04:41:11.297Z,535.00
2023-04-28T04:42:23.282Z,535.00
2023-04-28T04:43:12.324Z,534.00
2023-04-28T04:44:12.576Z,536.00
2023-04-28T04:45:11.280Z,534.00
2023-04-28T04:46:11.502Z,532.00
2023-04-28T04:47:11.303Z,532.00
2023-04-28T04:48:11.341Z,533.00
2023-04-28T04:49:11.320Z,532.00
2023-04-28T04:50:11.321Z,530.00
2023-04-28T04:51:11.426Z,527.00
2023-04-28T04:52:11.445Z,528.00
2023-04-28T04:53:13.992Z,528.00
2023-04-28T04:54:11.446Z,530.00
2023-04-28T04:55:11.498Z,531.00
2023-04-28T04:56:11.467Z,532.00
2023-04-28T04:57:11.437Z,533.00
2023-04-28T04:58:11.427Z,533.00
2023-04-28T04:59:11.438Z,535.00
2023-04-28T05:00:11.437Z,533.00
2023-04-28T05:01:11.394Z,531.00
2023-04-28T05:02:11.565Z,531.00
2023-04-28T05:03:11.444Z,531.00
2023-04-28T05:04:11.662Z,530.00
2023-04-28T05:05:20.382Z,528.00
2023-04-28T05:06:12.545Z,533.00
2023-04-28T05:07:11.384Z,537.00
2023-04-28T05:08:11.342Z,539.00
2023-04-28T05:09:11.349Z,540.00
2023-04-28T05:10:11.333Z,538.00
2023-04-28T05:11:11.575Z,537.00
2023-04-28T05:12:11.346Z,539.00
2023-04-28T05:13:11.338Z,536.00
2023-04-28T05:14:11.311Z,534.00
2023-04-28T05:15:11.320Z,534.00
2023-04-28T05:16:11.327Z,530.00
2023-04-28T05:17:11.355Z,531.00
2023-04-28T05:18:11.450Z,531.00
2023-04-28T05:19:11.461Z,532.00
2023-04-28T05:20:12.748Z,529.00
2023-04-28T05:21:11.543Z,529.00
2023-04-28T05:22:11.572Z,529.00
2023-04-28T05:23:11.613Z,529.00
2023-04-28T05:24:11.692Z,529.00
2023-04-28T05:25:11.714Z,527.00
2023-04-28T05:26:11.745Z,526.00
2023-04-28T05:27:11.823Z,524.00
2023-04-28T05:28:11.848Z,526.00
2023-04-28T05:29:11.936Z,524.00
2023-04-28T05:30:11.899Z,524.00
2023-04-28T05:31:11.993Z,525.00
2023-04-28T05:32:12.099Z,525.00
2023-04-28T05:33:12.065Z,525.00
2023-04-28T05:34:12.074Z,524.00
2023-04-28T05:35:12.102Z,525.00
2023-04-28T05:36:12.114Z,528.00
2023-04-28T05:37:12.531Z,530.00
2023-04-28T05:38:12.212Z,531.00
2023-04-28T05:39:12.196Z,531.00
2023-04-28T05:40:12.232Z,531.00
2023-04-28T05:41:12.285Z,534.00
2023-04-28T05:42:12.300Z,536.00
2023-04-28T05:43:12.356Z,538.00
2023-04-28T05:44:12.391Z,538.00
2023-04-28T05:45:12.414Z,541.00
2023-04-28T05:46:28.266Z,543.00
2023-04-28T05:47:13.447Z,556.00
2023-04-28T05:48:12.550Z,598.00
2023-04-28T05:49:12.437Z,603.00
2023-04-28T05:50:12.452Z,596.00
2023-04-28T05:51:12.440Z,598.00
2023-04-28T05:52:12.435Z,599.00
2023-04-28T05:53:12.458Z,597.00
2023-04-28T05:54:12.433Z,598.00
2023-04-28T05:55:12.486Z,600.00
2023-04-28T05:56:12.386Z,596.00
2023-04-28T05:57:12.550Z,596.00
2023-04-28T05:58:12.419Z,605.00
2023-04-28T05:59:12.397Z,614.00
2023-04-28T06:00:12.366Z,622.00
2023-04-28T06:01:12.354Z,624.00
2023-04-28T06:02:12.557Z,624.00
2023-04-28T06:03:12.499Z,629.00
2023-04-28T06:04:12.566Z,640.00
2023-04-28T06:05:12.566Z,665.00
2023-04-28T06:06:12.474Z,678.00
2023-04-28T06:07:12.519Z,632.00
2023-04-28T06:08:12.505Z,611.00
2023-04-28T06:09:12.530Z,591.00
2023-04-28T06:10:12.537Z,584.00
2023-04-28T06:11:12.562Z,574.00
2023-04-28T06:12:12.612Z,567.00
2023-04-28T06:13:13.961Z,557.00
2023-04-28T06:14:12.700Z,553.00
2023-04-28T06:15:12.722Z,549.00
2023-04-28T06:16:12.827Z,544.00
2023-04-28T06:17:12.838Z,541.00
2023-04-28T06:18:12.867Z,536.00
2023-04-28T06:19:12.932Z,529.00
2023-04-28T06:20:12.944Z,525.00
2023-04-28T06:21:12.936Z,524.00
2023-04-28T06:22:13.061Z,521.00
2023-04-28T06:23:12.986Z,520.00
2023-04-28T06:24:13.028Z,518.00
2023-04-28T06:25:13.031Z,517.00
2023-04-28T06:26:13.053Z,515.00
2023-04-28T06:27:13.547Z,515.00
2023-04-28T06:28:13.049Z,512.00
2023-04-28T06:29:13.056Z,513.00
2023-04-28T06:30:13.120Z,512.00
2023-04-28T06:31:13.153Z,511.00
2023-04-28T06:32:13.561Z,509.00
2023-04-28T06:33:13.176Z,508.00
2023-04-28T06:34:13.202Z,509.00
2023-04-28T06:35:13.174Z,509.00
2023-04-28T06:36:13.233Z,508.00
2023-04-28T06:37:13.251Z,506.00
2023-04-28T06:38:13.264Z,504.00
2023-04-28T06:39:13.313Z,504.00
2023-04-28T06:40:13.327Z,506.00
2023-04-28T06:41:13.358Z,504.00
2023-04-28T06:42:13.369Z,504.00
2023-04-28T06:43:13.395Z,505.00
2023-04-28T06:44:13.415Z,505.00
2023-04-28T06:45:13.422Z,504.00
2023-04-28T06:46:13.501Z,504.00
2023-04-28T06:47:13.502Z,505.00
2023-04-28T06:48:13.541Z,503.00
2023-04-28T06:49:13.539Z,503.00
2023-04-28T06:50:13.589Z,504.00
2023-04-28T06:51:13.612Z,504.00
2023-04-28T06:52:13.657Z,505.00
2023-04-28T06:53:13.685Z,504.00
2023-04-28T06:54:13.722Z,504.00
2023-04-28T06:55:13.786Z,507.00
2023-04-28T06:56:13.810Z,512.00
2023-04-28T06:57:13.873Z,517.00
2023-04-28T06:58:13.874Z,517.00
2023-04-28T06:59:13.898Z,517.00
2023-04-28T07:00:13.974Z,517.00
2023-04-28T07:01:14.082Z,517.00
2023-04-28T07:02:14.104Z,516.00
2023-04-28T07:03:14.166Z,517.00
2023-04-28T07:04:14.232Z,516.00
2023-04-28T07:05:16.041Z,516.00
2023-04-28T07:06:14.216Z,516.00
2023-04-28T07:07:14.292Z,517.00
2023-04-28T07:08:14.305Z,515.00
2023-04-28T07:09:14.328Z,515.00
2023-04-28T07:10:14.402Z,515.00
2023-04-28T07:11:14.458Z,514.00
2023-04-28T07:12:14.499Z,514.00
2023-04-28T07:13:14.531Z,515.00
2023-04-28T07:14:14.679Z,512.00
2023-04-28T07:15:14.889Z,510.00
2023-04-28T07:16:14.708Z,512.00
2023-04-28T07:17:14.728Z,513.00
2023-04-28T07:18:14.788Z,513.00
2023-04-28T07:19:14.777Z,513.00
2023-04-28T07:20:14.903Z,511.00
2023-04-28T07:21:14.855Z,508.00
2023-04-28T07:22:14.902Z,509.00
2023-04-28T07:23:14.892Z,509.00
2023-04-28T07:24:15.215Z,508.00
2023-04-28T07:25:15.152Z,507.00
2023-04-28T07:26:15.033Z,506.00
2023-04-28T07:27:15.594Z,509.00
2023-04-28T07:28:15.074Z,511.00
2023-04-28T07:29:15.135Z,510.00
2023-04-28T07:30:26.545Z,510.00
2023-04-28T07:31:16.156Z,510.00
2023-04-28T07:32:15.699Z,510.00
2023-04-28T07:33:15.177Z,510.00
2023-04-28T07:34:15.254Z,507.00
2023-04-28T07:35:15.107Z,504.00
2023-04-28T07:36:15.109Z,504.00
2023-04-28T07:37:15.123Z,504.00
2023-04-28T07:38:15.094Z,504.00
2023-04-28T07:39:15.089Z,505.00
2023-04-28T07:40:15.032Z,508.00
2023-04-28T07:41:15.101Z,505.00
2023-04-28T07:42:15.071Z,506.00
2023-04-28T07:43:15.061Z,506.00
2023-04-28T07:44:15.301Z,508.00
2023-04-28T07:45:15.121Z,510.00
2023-04-28T07:46:15.195Z,510.00
2023-04-28T07:47:15.597Z,508.00
2023-04-28T07:48:15.246Z,511.00
2023-04-28T07:49:15.252Z,517.00
2023-04-28T07:50:15.252Z,524.00
2023-04-28T07:51:15.295Z,534.00
2023-04-28T07:52:15.381Z,549.00
2023-04-28T07:53:15.378Z,599.00
2023-04-28T07:54:15.632Z,623.00
2023-04-28T07:55:15.494Z,627.00
2023-04-28T07:56:15.515Z,638.00
2023-04-28T07:57:15.629Z,650.00
2023-04-28T07:58:15.543Z,656.00
2023-04-28T07:59:15.588Z,660.00
2023-04-28T08:00:15.622Z,666.00
2023-04-28T08:01:15.620Z,668.00
2023-04-28T08:02:16.123Z,670.00
2023-04-28T08:03:15.968Z,666.00
2023-04-28T08:04:16.110Z,668.00
2023-04-28T08:05:16.107Z,726.00
2023-04-28T08:06:15.818Z,739.00
2023-04-28T08:07:16.107Z,741.00
2023-04-28T08:08:15.889Z,743.00
2023-04-28T08:09:15.885Z,750.00
2023-04-28T08:10:15.957Z,756.00
2023-04-28T08:11:15.916Z,762.00
2023-04-28T08:12:15.986Z,773.00
2023-04-28T08:13:15.997Z,799.00
2023-04-28T08:14:16.122Z,864.00
2023-04-28T08:15:17.275Z,857.00
2023-04-28T08:16:16.102Z,862.00
2023-04-28T08:17:16.561Z,872.00
2023-04-28T08:18:16.204Z,880.00
2023-04-28T08:19:16.221Z,888.00
2023-04-28T08:20:16.287Z,894.00
2023-04-28T08:21:16.318Z,905.00
2023-04-28T08:22:16.605Z,924.00
2023-04-28T08:23:16.408Z,941.00
2023-04-28T08:24:16.553Z,951.00
2023-04-28T08:25:16.501Z,960.00
2023-04-28T08:26:16.534Z,974.00
2023-04-28T08:27:16.601Z,995.00
2023-04-28T08:28:16.648Z,1018.00
2023-04-28T08:29:16.647Z,1042.00
2023-04-28T08:30:16.713Z,1047.00
2023-04-28T08:31:16.752Z,1051.00
2023-04-28T08:32:16.828Z,1064.00
2023-04-28T08:33:16.907Z,1078.00
2023-04-28T08:34:17.054Z,1089.00
2023-04-28T08:35:16.902Z,1102.00
2023-04-28T08:36:16.912Z,1113.00
2023-04-28T08:37:16.935Z,1125.00
2023-04-28T08:38:17.021Z,1137.00
2023-04-28T08:39:17.034Z,1146.00
2023-04-28T08:40:17.076Z,958.00
2023-04-28T08:41:17.123Z,919.00
2023-04-28T08:42:17.152Z,929.00
2023-04-28T08:43:17.207Z,938.00
2023-04-28T08:44:17.565Z,881.00
2023-04-28T08:45:17.293Z,897.00
2023-04-28T08:46:17.347Z,994.00
2023-04-28T08:47:17.389Z,991.00
2023-04-28T08:48:17.393Z,967.00
2023-04-28T08:49:17.459Z,981.00
2023-04-28T08:50:17.517Z,1029.00
2023-04-28T08:51:17.567Z,1107.00
2023-04-28T08:52:18.108Z,1134.00
2023-04-28T08:53:17.642Z,1156.00
2023-04-28T08:54:25.473Z,1200.00
2023-04-28T08:55:18.681Z,1212.00
2023-04-28T08:56:17.669Z,1215.00
2023-04-28T08:57:18.133Z,1223.00
2023-04-28T08:58:17.630Z,1222.00
2023-04-28T08:59:17.622Z,1004.00
2023-04-28T09:00:17.612Z,960.00
2023-04-28T09:01:17.692Z,1033.00
2023-04-28T09:02:18.278Z,1028.00
2023-04-28T09:03:17.767Z,1137.00
2023-04-28T09:04:18.122Z,1229.00
2023-04-28T09:05:17.707Z,1201.00
2023-04-28T09:06:17.588Z,1267.00
2023-04-28T09:07:17.652Z,1302.00
2023-04-28T09:08:17.699Z,1384.00
2023-04-28T09:09:17.664Z,1402.00
2023-04-28T09:10:17.731Z,1421.00
2023-04-28T09:11:17.720Z,1461.00
2023-04-28T09:12:17.723Z,1507.00
2023-04-28T09:13:17.746Z,1514.00
2023-04-28T09:14:18.034Z,1526.00
2023-04-28T09:15:17.777Z,1553.00
2023-04-28T09:16:17.859Z,1578.00
2023-04-28T09:17:17.834Z,1600.00
2023-04-28T09:18:17.916Z,1645.00
2023-04-28T09:19:18.042Z,1684.00
2023-04-28T09:20:18.065Z,1700.00
2023-04-28T09:21:18.028Z,1716.00
2023-04-28T09:22:25.413Z,1732.00
2023-04-28T09:23:19.133Z,1757.00
2023-04-28T09:24:18.220Z,1783.00
2023-04-28T09:25:18.066Z,1816.00
2023-04-28T09:26:18.042Z,1834.00
2023-04-28T09:27:18.054Z,1857.00
2023-04-28T09:28:18.018Z,1886.00
2023-04-28T09:29:18.031Z,1919.00
2023-04-28T09:30:18.029Z,1944.00
2023-04-28T09:31:18.026Z,1984.00
2023-04-28T09:32:18.112Z,2017.00
2023-04-28T09:33:18.130Z,2031.00
2023-04-28T09:34:18.126Z,2042.00
2023-04-28T09:35:17.996Z,2053.00
2023-04-28T09:36:17.983Z,2065.00
2023-04-28T09:37:17.991Z,2081.00
2023-04-28T09:38:18.161Z,2092.00
2023-04-28T09:39:17.967Z,2099.00
2023-04-28T09:40:17.976Z,2123.00
2023-04-28T09:41:18.030Z,2143.00
2023-04-28T09:42:18.039Z,2168.00
2023-04-28T09:43:21.804Z,2217.00
2023-04-28T09:44:18.373Z,2249.00
2023-04-28T09:45:18.082Z,2278.00
2023-04-28T09:46:18.042Z,2305.00
2023-04-28T09:47:17.991Z,2324.00
2023-04-28T09:48:17.995Z,2343.00
2023-04-28T09:49:17.987Z,2344.00
2023-04-28T09:50:18.039Z,2326.00
2023-04-28T09:51:17.950Z,2289.00
2023-04-28T09:52:17.951Z,2296.00
2023-04-28T09:53:17.956Z,2302.00
2023-04-28T09:54:17.930Z,2296.00
2023-04-28T09:55:17.937Z,2292.00
2023-04-28T09:56:17.971Z,2283.00
2023-04-28T09:57:17.914Z,2277.00
2023-04-28T09:58:18.138Z,2271.00
2023-04-28T09:59:17.900Z,2263.00
2023-04-28T10:00:17.904Z,2251.00
2023-04-28T10:01:17.964Z,2247.00
2023-04-28T10:03:19.968Z,2240.00
2023-04-28T10:04:06.994Z,2243.00
2023-04-28T10:04:18.001Z,2234.00
2023-04-28T10:05:18.062Z,2230.00
2023-04-28T10:06:17.851Z,2213.00
2023-04-28T10:07:17.843Z,2200.00
2023-04-28T10:08:18.173Z,2198.00
2023-04-28T10:09:17.824Z,2185.00
2023-04-28T10:10:17.834Z,2181.00
2023-04-28T10:11:17.808Z,2167.00
2023-04-28T10:12:17.807Z,2152.00
2023-04-28T10:13:17.828Z,2148.00
2023-04-28T10:14:17.816Z,2149.00
2023-04-28T10:15:17.799Z,2143.00
2023-04-28T10:16:17.869Z,2133.00
2023-04-28T10:17:17.797Z,2126.00
2023-04-28T10:18:17.771Z,2119.00
2023-04-28T10:19:17.763Z,2111.00
2023-04-28T10:20:17.771Z,2107.00
2023-04-28T10:21:17.780Z,2099.00
2023-04-28T10:22:17.742Z,2092.00
2023-04-28T10:23:17.742Z,2085.00
2023-04-28T10:24:17.758Z,2077.00
2023-04-28T10:25:17.740Z,2071.00
2023-04-28T10:26:17.708Z,2068.00
2023-04-28T10:27:17.712Z,2061.00
2023-04-28T10:28:18.139Z,2052.00
2023-04-28T10:29:17.696Z,2042.00
2023-04-28T10:31:17.768Z,2023.00
2023-04-28T10:32:17.711Z,2014.00
2023-04-28T10:33:17.658Z,2009.00
2023-04-28T10:34:17.677Z,2004.00
2023-04-28T10:35:17.669Z,2003.00
2023-04-28T10:36:19.379Z,2000.00
2023-04-28T10:37:18.636Z,1988.00
2023-04-28T10:38:17.657Z,1981.00
2023-04-28T10:39:17.642Z,1973.00
2023-04-28T10:40:17.667Z,1967.00
2023-04-28T10:41:17.616Z,1957.00
2023-04-28T10:42:17.621Z,1950.00
2023-04-28T10:43:17.628Z,1946.00
2023-04-28T10:44:17.645Z,1936.00
2023-04-28T10:45:17.619Z,1926.00
2023-04-28T10:46:17.614Z,1911.00
2023-04-28T10:47:17.584Z,1911.00
2023-04-28T10:48:17.639Z,1901.00
2023-04-28T10:49:17.584Z,1900.00
2023-04-28T10:50:19.985Z,1900.00
2023-04-28T10:51:17.755Z,1894.00
2023-04-28T10:52:17.761Z,1890.00
2023-04-28T10:53:17.753Z,1885.00
2023-04-28T10:54:17.863Z,1879.00
2023-04-28T10:55:22.079Z,1869.00
2023-04-28T10:56:17.796Z,1868.00
2023-04-28T10:57:17.792Z,1864.00
2023-04-28T10:58:17.785Z,1858.00
2023-04-28T10:59:17.760Z,1850.00
2023-04-28T11:00:17.791Z,1844.00
2023-04-28T11:01:17.764Z,1837.00
2023-04-28T11:02:17.775Z,1830.00
2023-04-28T11:03:17.808Z,1823.00
2023-04-28T11:04:17.983Z,1814.00
2023-04-28T11:05:17.839Z,1806.00
2023-04-28T11:06:18.128Z,1799.00
2023-04-28T11:07:17.709Z,1794.00
2023-04-28T11:08:17.791Z,1785.00
2023-04-28T11:09:17.776Z,1775.00
2023-04-28T11:10:17.688Z,1772.00
2023-04-28T11:11:17.713Z,1764.00
2023-04-28T11:12:17.688Z,1762.00
2023-04-28T11:13:17.665Z,1755.00
2023-04-28T11:14:17.649Z,1745.00
2023-04-28T11:15:17.657Z,1740.00
2023-04-28T11:16:17.695Z,1731.00
2023-04-28T11:17:17.643Z,1723.00
2023-04-28T11:18:17.613Z,1715.00
2023-04-28T11:19:17.590Z,1701.00
2023-04-28T11:20:17.624Z,1693.00
2023-04-28T11:21:17.618Z,1685.00
2023-04-28T11:22:17.587Z,1681.00
2023-04-28T11:23:17.604Z,1676.00
2023-04-28T11:24:17.570Z,1672.00
2023-04-28T11:25:17.567Z,1667.00
2023-04-28T11:26:17.648Z,1661.00
2023-04-28T11:27:17.591Z,1656.00
2023-04-28T11:28:17.627Z,1649.00
2023-04-28T11:29:17.665Z,1644.00
2023-04-28T11:30:17.704Z,1633.00
2023-04-28T11:31:17.768Z,1627.00
2023-04-28T11:32:17.832Z,1626.00
2023-04-28T11:33:17.846Z,1619.00
2023-04-28T11:34:17.833Z,1615.00
2023-04-28T11:35:17.846Z,1610.00
2023-04-28T11:36:17.881Z,1604.00
2023-04-28T11:37:18.210Z,1599.00
2023-04-28T11:38:18.134Z,1600.00
2023-04-28T11:39:17.996Z,1590.00
2023-04-28T11:40:18.023Z,1582.00
2023-04-28T11:41:18.061Z,1576.00
2023-04-28T11:42:18.058Z,1573.00
2023-04-28T11:43:18.106Z,1566.00
2023-04-28T11:44:18.142Z,1559.00
2023-04-28T11:45:18.170Z,1552.00
2023-04-28T11:46:18.320Z,1544.00
2023-04-28T11:47:18.373Z,1540.00
2023-04-28T11:48:18.279Z,1534.00
2023-04-28T11:49:18.335Z,1524.00
2023-04-28T11:50:18.365Z,1524.00
2023-04-28T11:51:18.404Z,1523.00
2023-04-28T11:52:18.439Z,1520.00
2023-04-28T11:53:18.692Z,1516.00
2023-04-28T11:54:18.494Z,1511.00
2023-04-28T11:55:18.547Z,1508.00
2023-04-28T11:56:18.557Z,1502.00
2023-04-28T11:57:18.582Z,1491.00
2023-04-28T11:58:18.658Z,1484.00
2023-04-28T11:59:18.685Z,1478.00
2023-04-28T12:00:18.719Z,1480.00
2023-04-28T12:01:18.713Z,1486.00
2023-04-28T12:02:18.823Z,1491.00
2023-04-28T12:03:19.346Z,1495.00
2023-04-28T12:04:18.927Z,1487.00
2023-04-28T12:05:18.898Z,1482.00
2023-04-28T12:06:18.893Z,1481.00
2023-04-28T12:07:18.964Z,1477.00
2023-04-28T12:08:18.985Z,1473.00
2023-04-28T12:09:19.004Z,1474.00
2023-04-28T12:10:19.116Z,1471.00
2023-04-28T12:11:20.059Z,1461.00
2023-04-28T12:12:22.937Z,1444.00
2023-04-28T12:13:20.123Z,1398.00
2023-04-28T12:14:19.064Z,1401.00
2023-04-28T12:15:20.513Z,1396.00
2023-04-28T12:16:19.165Z,1400.00
2023-04-28T12:17:19.093Z,1438.00
2023-04-28T12:18:19.064Z,1438.00
2023-04-28T12:19:19.040Z,1434.00
2023-04-28T12:20:19.046Z,1439.00
2023-04-28T12:21:19.035Z,1441.00
2023-04-28T12:22:19.149Z,1440.00